Time;durP1;ratioP1;P1;durP2;ratioP2;P2;SDS_P1;SDS_P2;PMS_P1;PMS_P2;Temp;Humidity;BMP_temperature;BMP_pressure;BME280_temperature;BME280_humidity;BME280_pressure;Samples;Min_cycle;Max_cycle;Signal;HPM_P1;HPM_P2
2022/04/08 00:01:14;;;;;;;;;0.00;0.00;;;;;13.33;45.08;100081.38;5061474;28;45366;-66
2022/04/08 00:03:39;;;;;;;;;1.00;0.00;;;;;13.31;44.97;100085.06;5060965;28;45219;-66
2022/04/08 00:06:04;;;;;;;;;0.00;0.00;;;;;13.31;45.07;100075.22;5077013;28;45971;-66
2022/04/08 00:08:30;;;;;;;;;0.50;0.00;;;;;13.34;44.91;100082.25;5060409;28;45232;-66
2022/04/08 00:10:55;;;;;;;;;1.00;0.00;;;;;13.32;45.21;100074.28;5060705;28;45253;-66
2022/04/08 00:13:20;;;;;;;;;0.00;0.00;;;;;13.29;45.31;100073.56;5059996;28;45375;-66
2022/04/08 00:15:46;;;;;;;;;0.00;0.00;;;;;13.30;45.37;100070.81;5061187;28;45256;-66
2022/04/08 00:18:12;;;;;;;;;1.00;0.00;;;;;13.30;45.25;100073.47;5060207;28;45215;-66
2022/04/08 00:20:38;;;;;;;;;1.00;0.00;;;;;13.25;45.32;100062.16;5059742;28;45523;-66
2022/04/08 00:23:04;;;;;;;;;0.50;0.00;;;;;13.24;45.49;100049.69;5061190;28;45303;-66
2022/04/08 00:25:30;;;;;;;;;0.00;0.00;;;;;13.27;45.41;100045.97;5056325;28;45327;-66
2022/04/08 00:27:55;;;;;;;;;1.00;0.00;;;;;13.29;45.10;100058.34;5051747;28;45427;-66
2022/04/08 00:30:20;;;;;;;;;0.00;0.00;;;;;13.26;45.51;100054.97;5060601;28;45252;-66
2022/04/08 00:32:46;;;;;;;;;0.50;0.50;;;;;13.27;45.48;100052.19;5061042;28;45458;-66
2022/04/08 00:35:12;;;;;;;;;0.00;0.00;;;;;13.24;45.46;100049.69;5060945;28;45488;-66
2022/04/08 00:37:39;;;;;;;;;1.00;0.00;;;;;13.27;45.57;100046.84;5060789;28;46351;-66
2022/04/08 00:40:07;;;;;;;;;1.00;0.00;;;;;13.29;45.82;100052.13;5059533;28;45248;-66
2022/04/08 00:42:33;;;;;;;;;1.00;1.00;;;;;13.29;45.64;100052.97;5056104;28;45366;-66
2022/04/08 00:44:59;;;;;;;;;1.00;1.00;;;;;13.26;46.05;100047.78;5059876;28;45328;-66
2022/04/08 00:47:24;;;;;;;;;1.00;0.00;;;;;13.26;45.82;100047.78;5054145;28;45363;-66
2022/04/08 00:49:53;;;;;;;;;0.00;0.00;;;;;13.26;45.95;100042.41;5058882;28;45496;-66
2022/04/08 00:52:18;;;;;;;;;0.00;0.00;;;;;13.26;45.90;100042.41;5060841;28;45307;-66
2022/04/08 00:54:45;;;;;;;;;0.00;0.00;;;;;13.26;45.91;100037.06;5058784;28;45236;-66
2022/04/08 00:57:11;;;;;;;;;0.00;0.00;;;;;13.20;46.10;100037.41;5059075;28;48704;-66
2022/04/08 00:59:37;;;;;;;;;1.00;0.00;;;;;13.26;46.05;100044.25;5058532;28;45939;-66
2022/04/08 01:02:03;;;;;;;;;0.00;0.00;;;;;13.26;46.34;100039.72;5076407;28;45356;-66
2022/04/08 01:04:28;;;;;;;;;0.00;0.00;;;;;13.25;46.29;100034.50;5047235;28;45350;-66
2022/04/08 01:06:54;;;;;;;;;0.00;0.00;;;;;13.26;46.32;100031.69;5060298;28;46035;-66
2022/04/08 01:09:21;;;;;;;;;1.00;0.00;;;;;13.28;46.60;100036.97;5060052;28;45247;-66
2022/04/08 01:11:47;;;;;;;;;0.00;0.00;;;;;13.29;46.30;100025.31;5060306;28;45452;-66
2022/04/08 01:14:14;;;;;;;;;0.00;0.00;;;;;13.26;46.36;100029.00;5060171;28;45377;-66
2022/04/08 01:16:40;;;;;;;;;0.00;0.00;;;;;13.24;46.23;100016.66;5059401;28;45457;-66
2022/04/08 01:19:06;;;;;;;;;0.00;0.00;;;;;13.27;46.41;100021.88;5059781;28;45516;-66
2022/04/08 01:21:32;;;;;;;;;0.00;0.00;;;;;13.30;46.27;100022.56;5060258;28;45244;-66
2022/04/08 01:23:59;;;;;;;;;0.25;0.25;;;;;13.27;46.41;100012.00;5060322;28;45496;-66
2022/04/08 01:26:25;;;;;;;;;0.00;0.00;;;;;13.29;46.47;100019.97;5046105;28;47253;-66
2022/04/08 01:28:55;;;;;;;;;2.00;0.00;;;;;13.27;46.47;100025.41;5085221;27;45745;-66
2022/04/08 01:31:24;;;;;;;;;1.75;0.00;;;;;13.19;46.62;100010.69;5055101;28;45332;-66
2022/04/08 01:33:50;;;;;;;;;0.50;0.00;;;;;13.27;46.48;100027.22;5059990;28;45567;-66
2022/04/08 01:36:16;;;;;;;;;0.75;0.00;;;;;13.25;46.10;100018.41;5059944;28;46146;-66
2022/04/08 01:38:41;;;;;;;;;0.50;0.00;;;;;13.19;46.23;100013.38;5058860;28;45287;-66
2022/04/08 01:41:07;;;;;;;;;1.00;0.00;;;;;13.19;46.61;100008.88;5059761;28;45387;-66
2022/04/08 01:43:32;;;;;;;;;2.00;0.00;;;;;13.20;46.52;100007.03;5060040;28;45308;-66
2022/04/08 01:45:57;;;;;;;;;0.50;0.00;;;;;13.14;46.59;100000.22;5059824;28;45313;-66
2022/04/08 01:48:23;;;;;;;;;0.75;0.75;;;;;13.20;46.68;100013.28;5059374;28;45303;-66
2022/04/08 01:50:48;;;;;;;;;1.50;0.00;;;;;13.18;46.62;100004.47;5062783;28;45448;-66
2022/04/08 01:53:17;;;;;;;;;2.00;0.00;;;;;13.20;46.49;99997.22;5059983;28;45379;-66
2022/04/08 01:55:43;;;;;;;;;0.00;0.00;;;;;13.10;46.34;99987.97;5053682;28;47297;-66
2022/04/08 01:58:08;;;;;;;;;3.75;1.00;;;;;13.20;46.70;100004.38;5058949;28;45326;-66
2022/04/08 02:00:34;;;;;;;;;0.00;0.00;;;;;13.18;46.39;99991.09;5054024;28;45315;-66
2022/04/08 02:03:00;;;;;;;;;0.00;0.00;;;;;13.16;46.71;99993.84;5059941;28;45266;-66
2022/04/08 02:05:26;;;;;;;;;0.00;0.00;;;;;13.15;46.55;99985.88;5059640;28;46269;-66
2022/04/08 02:07:53;;;;;;;;;0.00;0.00;;;;;13.11;46.77;99987.88;5059795;28;45311;-66
2022/04/08 02:10:19;;;;;;;;;0.00;0.00;;;;;13.20;46.75;99994.53;5046297;28;45278;-66
2022/04/08 02:12:44;;;;;;;;;0.00;0.00;;;;;13.20;46.74;99994.53;5059419;28;45227;-66
2022/04/08 02:15:10;;;;;;;;;1.00;0.00;;;;;13.19;46.93;99992.78;5056559;28;46333;-66
2022/04/08 02:17:36;;;;;;;;;2.00;0.00;;;;;13.18;46.98;99992.88;5072026;28;45353;-66
2022/04/08 02:20:01;;;;;;;;;0.00;0.00;;;;;13.18;46.84;99988.41;5054139;28;45512;-66
2022/04/08 02:22:29;;;;;;;;;1.00;0.00;;;;;13.17;47.06;99983.97;5059540;28;45161;-66
2022/04/08 02:24:56;;;;;;;;;1.00;0.00;;;;;13.15;47.12;99977.84;5061127;28;46475;-66
2022/04/08 02:27:23;;;;;;;;;0.50;0.00;;;;;13.14;46.84;99973.44;5047949;28;45562;-66
2022/04/08 02:29:49;;;;;;;;;0.00;0.00;;;;;13.19;46.88;99979.41;5063086;28;45259;-66
2022/04/08 02:32:14;;;;;;;;;1.00;0.00;;;;;13.22;47.00;99981.91;5061273;28;45976;-66
2022/04/08 02:34:39;;;;;;;;;3.25;0.00;;;;;13.18;47.06;99966.97;5062727;28;46119;-66
2022/04/08 02:37:05;;;;;;;;;1.00;1.00;;;;;13.18;47.28;99966.06;5060795;28;45580;-66
2022/04/08 02:39:31;;;;;;;;;0.00;0.00;;;;;13.21;47.16;99968.59;5062813;28;45327;-66
2022/04/08 02:41:57;;;;;;;;;0.00;0.00;;;;;13.24;46.89;99974.63;5062709;28;45269;-66
2022/04/08 02:44:22;;;;;;;;;0.00;0.00;;;;;13.24;46.82;99971.97;5062615;28;45255;-66
2022/04/08 02:46:48;;;;;;;;;0.00;0.00;;;;;13.20;47.04;99958.81;5060281;28;45505;-66
2022/04/08 02:49:13;;;;;;;;;0.00;0.00;;;;;13.24;47.27;99960.38;5056779;28;45469;-66
2022/04/08 02:51:38;;;;;;;;;0.50;0.00;;;;;13.23;47.46;99961.31;5062607;28;45401;-66
2022/04/08 02:54:04;;;;;;;;;0.00;0.00;;;;;13.23;47.25;99953.28;5062231;28;46139;-66
2022/04/08 02:56:29;;;;;;;;;1.50;0.25;;;;;13.23;47.45;99964.00;5062403;28;45392;-66
2022/04/08 02:58:57;;;;;;;;;0.75;0.75;;;;;13.19;47.62;99957.94;5055259;28;45374;-66
2022/04/08 03:01:22;;;;;;;;;1.00;0.75;;;;;13.19;47.68;99952.59;5062606;28;45311;-66
2022/04/08 03:03:48;;;;;;;;;0.50;0.00;;;;;13.15;47.58;99943.00;5062235;28;46081;-66
2022/04/08 03:06:13;;;;;;;;;1.00;1.00;;;;;13.13;47.57;99936.84;5062370;28;45142;-66
2022/04/08 03:08:38;;;;;;;;;2.25;0.00;;;;;13.16;47.78;99937.56;5061254;28;45269;-66
2022/04/08 03:11:04;;;;;;;;;1.00;0.00;;;;;13.20;47.83;99935.56;5062100;28;45276;-66
2022/04/08 03:13:29;;;;;;;;;0.00;0.00;;;;;13.21;47.79;99934.59;5062285;28;45509;-66
2022/04/08 03:15:55;;;;;;;;;2.00;0.00;;;;;13.21;47.92;99939.97;5061120;28;45228;-66
2022/04/08 03:18:20;;;;;;;;;0.75;0.75;;;;;13.19;47.89;99933.84;5061680;28;45227;-66
2022/04/08 03:20:45;;;;;;;;;0.00;0.00;;;;;13.13;48.05;99929.69;5062374;28;45275;-66
2022/04/08 03:23:11;;;;;;;;;3.00;1.00;;;;;13.18;48.14;99928.56;5060721;28;45381;-66
2022/04/08 03:25:36;;;;;;;;;0.00;0.00;;;;;13.19;48.47;99922.25;5056414;28;45248;-66
2022/04/08 03:28:02;;;;;;;;;1.50;1.00;;;;;13.20;48.48;99929.34;5053927;28;45292;-66
2022/04/08 03:30:27;;;;;;;;;0.25;0.00;;;;;13.15;48.97;99916.22;5061964;28;45434;-66
2022/04/08 03:32:54;;;;;;;;;2.75;0.00;;;;;13.14;49.10;99917.16;5061045;28;46079;-66
2022/04/08 03:35:20;;;;;;;;;2.50;1.00;;;;;13.14;49.56;99926.03;5056538;28;45616;-66
2022/04/08 03:37:46;;;;;;;;;1.00;0.00;;;;;13.19;49.75;99928.47;5052830;28;45974;-66
2022/04/08 03:40:11;;;;;;;;;4.00;0.25;;;;;13.15;49.72;99924.25;5061549;28;45407;-66
2022/04/08 03:42:37;;;;;;;;;2.00;1.00;;;;;13.18;49.83;99929.44;5061424;28;45475;-66
2022/04/08 03:45:04;;;;;;;;;1.50;0.50;;;;;13.14;50.45;99925.19;5061022;28;45373;-66
2022/04/08 03:47:30;;;;;;;;;0.50;0.00;;;;;13.03;51.50;99899.00;5054321;28;45251;-66
2022/04/08 03:49:56;;;;;;;;;1.50;0.00;;;;;13.14;50.98;99915.31;5060562;28;45361;-66
2022/04/08 03:52:21;;;;;;;;;0.75;0.25;;;;;13.07;51.59;99894.34;5061543;28;46068;-66
2022/04/08 03:54:46;;;;;;;;;0.50;0.50;;;;;13.10;51.94;99887.00;5055759;28;45239;-66
2022/04/08 03:57:12;;;;;;;;;2.00;0.50;;;;;13.12;52.36;99884.22;5042072;28;45356;-66
2022/04/08 03:59:37;;;;;;;;;1.50;1.00;;;;;13.10;52.76;99878.09;5060413;28;45241;-66
2022/04/08 04:02:05;;;;;;;;;0.25;0.00;;;;;13.08;52.69;99869.25;5061530;28;45447;-66
2022/04/08 04:04:31;;;;;;;;;1.75;0.25;;;;;13.07;53.09;99862.19;5060347;28;45530;-66
2022/04/08 04:06:57;;;;;;;;;0.50;0.50;;;;;13.07;53.21;99863.06;5061786;28;45370;-66
2022/04/08 04:09:22;;;;;;;;;3.00;0.00;;;;;12.96;53.38;99844.03;5059965;28;45382;-66
2022/04/08 04:11:47;;;;;;;;;1.25;1.00;;;;;13.00;53.49;99842.94;5061133;28;45486;-66
2022/04/08 04:14:13;;;;;;;;;0.00;0.00;;;;;12.96;53.45;99834.22;5060434;28;45277;-66
2022/04/08 04:16:38;;;;;;;;;1.50;1.00;;;;;13.02;53.60;99842.84;5061418;28;45209;-66
2022/04/08 04:19:04;;;;;;;;;0.00;0.00;;;;;12.93;53.81;99818.31;5061038;28;45432;-66
2022/04/08 04:21:30;;;;;;;;;1.00;0.75;;;;;12.97;54.00;99825.19;5061027;28;46942;-66
2022/04/08 04:23:55;;;;;;;;;0.00;0.00;;;;;12.94;54.12;99813.78;5055009;28;45239;-66
2022/04/08 04:26:21;;;;;;;;;2.00;0.75;;;;;12.94;54.29;99811.97;5047391;28;45218;-66
2022/04/08 04:28:46;;;;;;;;;0.00;0.00;;;;;12.93;54.44;99807.59;5059325;28;45317;-66
2022/04/08 04:31:11;;;;;;;;;0.50;0.00;;;;;12.94;54.43;99798.56;5061082;28;46137;-66
2022/04/08 04:33:37;;;;;;;;;0.75;0.25;;;;;12.87;54.80;99783.81;5060236;28;45298;-66
2022/04/08 04:36:02;;;;;;;;;1.25;1.00;;;;;12.87;54.47;99773.09;5061375;28;45233;-66
2022/04/08 04:38:27;;;;;;;;;1.00;0.25;;;;;12.86;54.43;99774.03;5060823;28;45206;-66
2022/04/08 04:40:53;;;;;;;;;2.75;1.25;;;;;12.89;54.28;99775.69;5060323;28;46380;-66
2022/04/08 04:43:18;;;;;;;;;1.00;0.75;;;;;12.91;54.54;99776.47;5060264;28;45437;-66
2022/04/08 04:45:43;;;;;;;;;1.00;1.00;;;;;12.87;54.66;99778.47;5060959;28;45252;-66
2022/04/08 04:48:11;;;;;;;;;1.75;1.75;;;;;12.87;54.73;99767.75;5060635;28;45490;-66
2022/04/08 04:50:40;;;;;;;;;0.00;0.00;;;;;12.79;54.60;99761.97;5060318;28;47177;-67
2022/04/08 04:53:06;;;;;;;;;0.75;0.75;;;;;12.78;54.83;99746.88;5059805;28;45302;-67
2022/04/08 04:55:32;;;;;;;;;3.00;1.00;;;;;12.78;55.10;99746.88;5059162;28;45240;-67
2022/04/08 04:57:57;;;;;;;;;1.25;0.50;;;;;12.75;55.13;99733.66;5060342;28;45398;-67
2022/04/08 05:00:23;;;;;;;;;2.25;1.00;;;;;12.74;54.85;99739.94;5059177;28;45894;-67
2022/04/08 05:02:48;;;;;;;;;2.00;0.50;;;;;12.73;55.29;99731.06;5059794;28;45346;-67
2022/04/08 05:05:14;;;;;;;;;0.75;0.75;;;;;12.72;55.52;99721.28;5060619;28;45871;-67
2022/04/08 05:07:39;;;;;;;;;1.25;1.00;;;;;12.73;55.42;99722.16;5060499;28;45456;-67
2022/04/08 05:10:06;;;;;;;;;2.00;1.00;;;;;12.65;55.34;99703.00;5060253;28;45398;-67
2022/04/08 05:12:32;;;;;;;;;0.00;0.00;;;;;12.71;55.68;99703.53;5059497;28;45643;-66
2022/04/08 05:14:58;;;;;;;;;0.00;0.00;;;;;12.62;55.83;99684.44;5058481;28;45470;-66
2022/04/08 05:17:23;;;;;;;;;2.00;1.00;;;;;12.65;55.65;99684.28;5060403;28;45334;-66
2022/04/08 05:19:49;;;;;;;;;1.00;0.00;;;;;12.62;56.05;99674.59;5058983;28;47207;-68
2022/04/08 05:22:14;;;;;;;;;1.00;0.75;;;;;12.65;56.01;99676.25;5052944;28;46421;-66
2022/04/08 05:24:40;;;;;;;;;1.00;1.00;;;;;12.63;56.08;99673.66;5053641;28;45444;-66
2022/04/08 05:27:06;;;;;;;;;2.50;0.75;;;;;12.56;56.01;99664.22;5046569;28;45247;-66
2022/04/08 05:29:31;;;;;;;;;1.00;1.00;;;;;12.59;55.89;99666.72;5054222;28;46381;-66
2022/04/08 05:31:57;;;;;;;;;1.50;1.00;;;;;12.58;55.72;99665.88;5058936;28;45529;-65
2022/04/08 05:34:22;;;;;;;;;3.50;2.00;;;;;12.64;56.15;99669.16;5060321;28;45275;-66
2022/04/08 05:36:47;;;;;;;;;2.75;1.00;;;;;12.62;56.32;99660.34;5058461;28;45454;-66
2022/04/08 05:39:13;;;;;;;;;0.25;0.00;;;;;12.62;56.11;99655.84;5058634;28;48390;-66
2022/04/08 05:41:38;;;;;;;;;2.25;1.00;;;;;12.56;56.29;99646.38;5058994;28;45391;-66
2022/04/08 05:44:04;;;;;;;;;4.00;1.00;;;;;12.59;56.46;99642.63;5059973;28;45290;-66
2022/04/08 05:46:30;;;;;;;;;0.00;0.00;;;;;12.56;56.38;99643.69;5059899;28;45434;-66
2022/04/08 05:48:55;;;;;;;;;1.00;1.00;;;;;12.59;56.51;99640.81;5059420;28;46313;-66
2022/04/08 05:51:20;;;;;;;;;0.25;0.25;;;;;12.54;56.38;99620.63;5059807;28;45293;-66
2022/04/08 05:53:46;;;;;;;;;1.00;1.00;;;;;12.46;56.49;99607.69;5068289;28;45688;-66
2022/04/08 05:56:11;;;;;;;;;1.00;0.50;;;;;12.53;56.64;99630.47;5060221;28;45414;-66
2022/04/08 05:58:36;;;;;;;;;1.00;1.00;;;;;12.51;56.96;99621.69;5049794;28;45528;-66
2022/04/08 06:01:02;;;;;;;;;1.00;1.00;;;;;12.48;56.81;99605.78;5054047;28;45331;-66
2022/04/08 06:03:27;;;;;;;;;3.00;1.00;;;;;12.45;57.17;99591.75;5062353;28;45259;-65
2022/04/08 06:05:54;;;;;;;;;2.00;1.00;;;;;12.42;57.08;99585.59;5063108;28;45382;-65
2022/04/08 06:08:20;;;;;;;;;4.00;1.00;;;;;12.41;57.14;99581.22;5063073;28;46165;-67
2022/04/08 06:10:46;;;;;;;;;0.75;0.25;;;;;12.40;56.90;99571.44;5063254;28;45352;-67
2022/04/08 06:13:11;;;;;;;;;1.00;0.75;;;;;12.46;56.96;99580.91;5059791;28;45276;-67
2022/04/08 06:15:36;;;;;;;;;1.50;0.50;;;;;12.46;56.94;99569.34;5057681;28;45461;-67
2022/04/08 06:18:02;;;;;;;;;2.00;1.00;;;;;12.47;57.01;99563.06;5062622;28;45392;-67
2022/04/08 06:20:28;;;;;;;;;0.50;0.50;;;;;12.42;56.90;99556.16;5061507;28;45385;-66
2022/04/08 06:22:54;;;;;;;;;1.25;1.00;;;;;12.44;57.31;99550.72;5063118;28;45322;-67
2022/04/08 06:25:21;;;;;;;;;5.00;1.75;;;;;12.36;57.50;99529.78;5052220;28;45383;-65
2022/04/08 06:28:03;;;;;;;;;1.00;1.00;;;;;12.39;56.92;99534.06;5069808;28;47246;-67
2022/04/08 06:30:29;;;;;;;;;1.50;0.75;;;;;12.29;57.81;99520.34;5047188;28;45396;-66
2022/04/08 06:32:55;;;;;;;;;1.25;1.25;;;;;12.33;57.73;99526.38;5062833;28;45447;-66
2022/04/08 06:35:21;;;;;;;;;1.50;0.00;;;;;12.27;57.63;99522.28;5075655;28;45697;-67
2022/04/08 06:37:47;;;;;;;;;3.25;2.00;;;;;12.30;57.61;99521.25;5051022;28;45587;-64
2022/04/08 06:40:12;;;;;;;;;2.00;2.00;;;;;12.16;57.93;99500.63;5061581;28;45327;-65
2022/04/08 06:42:38;;;;;;;;;2.75;2.00;;;;;12.22;57.89;99511.84;5057783;28;45479;-65
2022/04/08 06:45:05;;;;;;;;;0.75;0.75;;;;;12.16;57.45;99517.56;5046968;28;45532;-65
2022/04/08 06:47:31;;;;;;;;;4.75;3.00;;;;;12.01;57.79;99513.97;5056206;27;45365;-64
2022/04/08 06:49:57;;;;;;;;;0.75;0.00;;;;;11.86;57.68;99513.00;5054047;28;45399;-65
2022/04/08 06:52:22;;;;;;;;;1.25;1.25;;;;;11.75;58.04;99499.38;5077732;28;45387;-64
2022/04/08 06:54:47;;;;;;;;;2.00;2.00;;;;;11.74;58.46;99513.69;5055189;28;45548;-65
2022/04/08 06:57:13;;;;;;;;;3.50;1.75;;;;;11.57;58.88;99493.25;5059735;28;45947;-69
2022/04/08 06:59:40;;;;;;;;;3.00;3.00;;;;;11.71;59.81;99516.56;5060588;28;45438;-66
2022/04/08 07:02:05;;;;;;;;;1.75;1.75;;;;;11.73;59.71;99511.97;5061386;28;45324;-66
2022/04/08 07:04:31;;;;;;;;;1.00;1.00;;;;;11.71;59.53;99504.97;5061592;28;45362;-66
2022/04/08 07:06:56;;;;;;;;;1.00;1.00;;;;;11.77;59.57;99510.84;5061328;28;45264;-66
2022/04/08 07:09:22;;;;;;;;;1.75;0.75;;;;;11.76;59.42;99517.16;5061904;28;45323;-66
2022/04/08 07:11:48;;;;;;;;;1.25;1.00;;;;;11.72;59.60;99502.22;5061119;28;45494;-66
2022/04/08 07:14:14;;;;;;;;;1.25;1.00;;;;;11.74;59.79;99516.34;5051234;28;45622;-66
2022/04/08 07:16:41;;;;;;;;;2.00;2.00;;;;;11.61;59.91;99493.94;5058898;28;45545;-66
2022/04/08 07:19:06;;;;;;;;;3.00;2.00;;;;;11.59;60.08;99486.00;5052708;28;45248;-68
2022/04/08 07:21:32;;;;;;;;;3.00;1.00;;;;;11.62;59.18;99495.69;5067773;28;45793;-71
2022/04/08 07:23:57;;;;;;;;;2.00;2.00;;;;;11.54;60.61;99474.72;5056332;28;45537;-67
2022/04/08 07:26:23;;;;;;;;;71.25;55.75;;;;;11.62;59.70;99474.31;5055708;28;45895;-68
2022/04/08 07:28:48;;;;;;;;;2.50;1.75;;;;;11.55;59.92;99465.78;5052299;28;45436;-67
2022/04/08 07:31:14;;;;;;;;;4.00;3.00;;;;;11.58;60.27;99457.59;5058572;28;45564;-67
2022/04/08 07:33:39;;;;;;;;;3.50;3.00;;;;;11.59;60.18;99455.75;5056735;28;45540;-67
2022/04/08 07:36:05;;;;;;;;;3.50;1.00;;;;;11.50;59.92;99449.97;5064509;28;45376;-66
2022/04/08 07:38:31;;;;;;;;;8.00;5.00;;;;;11.46;60.75;99442.22;5075576;27;45402;-67
2022/04/08 07:40:59;;;;;;;;;4.50;3.00;;;;;11.43;60.09;99435.25;5057420;28;45563;-66
2022/04/08 07:43:25;;;;;;;;;2.25;2.00;;;;;11.35;60.65;99412.59;5060949;27;45429;-66
2022/04/08 07:45:50;;;;;;;;;2.25;2.00;;;;;11.24;60.67;99402.50;5070395;28;45456;-66
2022/04/08 07:48:16;;;;;;;;;5.25;2.00;;;;;11.16;61.49;99375.38;5055518;28;45301;-68
2022/04/08 07:50:41;;;;;;;;;2.75;2.75;;;;;11.21;61.68;99382.19;5056195;28;45677;-66
2022/04/08 07:53:07;;;;;;;;;2.25;1.25;;;;;11.16;60.93;99389.59;5053922;28;45308;-67
2022/04/08 07:55:33;;;;;;;;;1.25;1.25;;;;;11.10;61.24;99380.13;5048329;28;45802;-67
2022/04/08 07:57:58;;;;;;;;;2.75;2.75;;;;;11.06;61.81;99386.59;5056814;28;45841;-67
2022/04/08 08:00:26;;;;;;;;;3.00;2.00;;;;;11.05;61.95;99386.66;5076146;27;45441;-68
2022/04/08 08:02:52;;;;;;;;;5.00;2.00;;;;;11.09;61.50;99389.09;5060399;28;45391;-67
2022/04/08 08:05:20;;;;;;;;;5.25;3.00;;;;;10.98;61.53;99364.78;5046636;28;48127;-67
2022/04/08 08:07:54;;;;;;;;;1.25;1.25;;;;;11.02;61.63;99355.66;5055569;28;45833;-66
2022/04/08 08:10:29;;;;;;;;;1.25;1.25;;;;;11.04;62.29;99361.78;5043467;28;45436;-67
2022/04/08 08:12:55;;;;;;;;;81.25;63.00;;;;;10.98;62.04;99354.13;5053664;28;45482;-67
2022/04/08 08:15:22;;;;;;;;;21.00;18.50;;;;;10.96;62.00;99331.09;5068938;28;48080;-66
2022/04/08 08:17:49;;;;;;;;;4.00;2.00;;;;;10.82;61.88;99308.72;5067297;28;45441;-67
2022/04/08 08:20:17;;;;;;;;;2.25;2.00;;;;;10.85;62.07;99319.22;5058880;28;45543;-66
2022/04/08 08:22:42;;;;;;;;;2.50;2.50;;;;;10.87;62.71;99324.47;5057930;28;45520;-66
2022/04/08 08:25:10;;;;;;;;;1.00;1.00;;;;;10.84;62.65;99321.97;5058167;28;45481;-69
2022/04/08 08:27:43;;;;;;;;;3.00;2.00;;;;;10.84;62.69;99313.97;5071159;28;45279;-65
2022/04/08 08:30:10;;;;;;;;;3.75;2.75;;;;;10.73;62.22;99299.41;5051181;28;45396;-66
2022/04/08 08:32:42;;;;;;;;;3.00;3.00;;;;;10.68;61.89;99288.16;5059520;28;45595;-68
2022/04/08 08:35:09;;;;;;;;;2.00;1.00;;;;;10.59;61.90;99293.13;5079656;27;47198;-68
2022/04/08 08:37:36;;;;;;;;;2.00;2.00;;;;;10.55;61.97;99298.63;5061903;28;45824;-68
2022/04/08 08:40:05;;;;;;;;;2.00;2.00;;;;;10.42;62.03;99291.41;5054773;28;45470;-68
2022/04/08 08:42:32;;;;;;;;;3.00;1.00;;;;;10.28;63.03;99282.31;5056220;28;45832;-68
2022/04/08 08:44:57;;;;;;;;;1.25;0.50;;;;;10.17;63.03;99277.56;5050331;28;47749;-68
2022/04/08 08:47:27;;;;;;;;;2.75;2.00;;;;;10.05;62.94;99264.88;5055512;28;45966;-68
2022/04/08 08:49:53;;;;;;;;;1.00;1.00;;;;;10.07;62.42;99280.81;5057931;28;45441;-68
2022/04/08 08:52:19;;;;;;;;;0.75;0.75;;;;;9.88;62.41;99267.59;5051515;28;45462;-68
2022/04/08 08:54:48;;;;;;;;;2.00;1.50;;;;;9.82;63.49;99271.44;5059186;28;47155;-68
2022/04/08 08:57:18;;;;;;;;;3.75;1.00;;;;;9.72;64.19;99241.78;5060720;28;45702;-68
2022/04/08 08:59:45;;;;;;;;;3.00;1.50;;;;;9.73;63.75;99240.81;5065908;28;45436;-68
2022/04/08 09:02:12;;;;;;;;;1.75;1.00;;;;;9.82;63.52;99239.47;5065494;27;45418;-69
2022/04/08 09:04:42;;;;;;;;;2.00;0.25;;;;;9.56;63.88;99179.59;5066602;28;45855;-71
2022/04/08 09:07:09;;;;;;;;;2.25;1.50;;;;;9.60;64.50;99197.97;5065119;28;45300;-71
2022/04/08 09:09:35;;;;;;;;;1.75;1.75;;;;;9.63;64.91;99197.81;5068242;28;45725;-70
2022/04/08 09:12:13;;;;;;;;;1.00;1.00;;;;;9.93;64.41;99222.91;5065101;28;45428;-73
2022/04/08 09:14:43;;;;;;;;;1.25;1.25;;;;;9.60;64.74;99150.00;5059785;27;46430;-71
2022/04/08 09:17:09;;;;;;;;;1.00;1.00;;;;;9.73;63.53;99166.22;5058518;28;45777;-71
2022/04/08 09:19:34;;;;;;;;;2.00;0.75;;;;;9.82;63.62;99186.16;5058179;28;45627;-71
2022/04/08 09:22:00;;;;;;;;;2.00;1.50;;;;;9.52;63.89;99146.94;5055982;28;45537;-72
2022/04/08 09:24:29;;;;;;;;;1.25;1.00;;;;;9.49;64.38;99125.78;5056492;28;45398;-66
2022/04/08 09:26:56;;;;;;;;;2.75;1.75;;;;;9.66;64.65;99158.66;5059744;28;45421;-65
2022/04/08 09:29:27;;;;;;;;;4.00;1.00;;;;;9.25;64.14;99094.19;5058187;28;45509;-66
2022/04/08 09:32:06;;;;;;;;;;;;;;;;;;;;;
2022/04/08 09:34:34;;;;;;;;;2.50;1.00;;;;;9.79;65.21;99165.03;5053957;28;75350;-66
2022/04/08 09:37:08;;;;;;;;;0.00;0.00;;;;;9.29;64.22;99097.56;5056347;28;45421;-68
2022/04/08 09:39:33;;;;;;;;;1.00;0.00;;;;;9.52;63.75;99140.72;5066163;28;45717;-70
2022/04/08 09:42:03;;;;;;;;;1.00;1.00;;;;;9.60;63.26;99178.47;5057309;28;45462;-70
2022/04/08 09:44:36;;;;;;;;;2.50;2.00;;;;;9.01;64.84;99108.78;5046569;28;45566;-66
2022/04/08 09:47:11;;;;;;;;;1.00;1.00;;;;;9.43;64.22;99192.69;5046627;28;45907;-66
2022/04/08 09:49:36;;;;;;;;;0.00;0.00;;;;;9.19;65.16;99154.91;5055434;28;45515;-66
2022/04/08 09:52:06;;;;;;;;;3.50;3.00;;;;;9.19;65.35;99171.72;5058602;28;45588;-65
2022/04/08 09:54:33;;;;;;;;;1.00;1.00;;;;;8.94;64.83;99129.53;5057116;28;45673;-65
2022/04/08 09:57:03;;;;;;;;;2.50;2.50;;;;;9.12;64.62;99150.81;5057241;28;45532;-65
2022/04/08 09:59:30;;;;;;;;;2.25;2.25;;;;;8.91;65.33;99124.38;5055449;28;45502;-63
2022/04/08 10:01:58;;;;;;;;;1.75;1.75;;;;;8.96;65.07;99124.13;5060421;28;45509;-64
2022/04/08 10:04:25;;;;;;;;;1.00;1.00;;;;;9.13;65.39;99153.41;5055571;28;45469;-64
2022/04/08 10:06:51;;;;;;;;;1.25;1.00;;;;;9.27;65.97;99176.63;5056816;28;45516;-64
2022/04/08 10:09:19;;;;;;;;;1.25;1.00;;;;;9.17;65.18;99167.41;5058496;28;45396;-64
2022/04/08 10:11:57;;;;;;;;;1.00;1.00;;;;;9.28;65.23;99187.19;5051377;28;45413;-64
2022/04/08 10:15:11;;;;;;;;;3.00;2.00;;;;;9.18;65.04;99196.59;5049889;28;45794;-64
2022/04/08 10:17:36;;;;;;;;;2.00;2.00;;;;;8.85;65.92;99144.19;5032227;28;45747;-63
2022/04/08 10:20:21;;;;;;;;;1.75;1.75;;;;;8.71;65.97;99101.44;5049502;28;45371;-64
2022/04/08 10:22:47;;;;;;;;;2.50;1.25;;;;;8.91;66.72;99140.34;5057133;28;45309;-64
2022/04/08 10:25:15;;;;;;;;;2.50;1.50;;;;;8.95;66.31;99149.88;5058325;28;45554;-64
2022/04/08 10:27:43;;;;;;;;;2.00;1.50;;;;;9.32;66.73;99160.41;5057973;28;45516;-64
2022/04/08 10:30:13;;;;;;;;;1.25;1.00;;;;;9.00;65.94;99097.25;5059040;28;45446;-64
2022/04/08 10:32:39;;;;;;;;;2.00;1.00;;;;;9.13;65.00;99123.25;5055901;28;45733;-64
2022/04/08 10:35:15;;;;;;;;;2.00;2.00;;;;;9.04;65.57;99121.94;5066242;28;47343;-64
2022/04/08 10:37:42;;;;;;;;;0.50;0.50;;;;;8.90;65.55;99091.59;5056711;28;45911;-64
2022/04/08 10:40:10;;;;;;;;;4.00;1.25;;;;;9.16;65.61;99131.94;5058585;28;45547;-64
2022/04/08 10:42:36;;;;;;;;;1.25;1.25;;;;;9.06;66.45;99098.75;5056940;28;45447;-64
2022/04/08 10:45:12;;;;;;;;;2.00;2.00;;;;;9.05;66.28;99079.28;5058252;28;46119;-64
2022/04/08 10:47:46;;;;;;;;;1.25;1.25;;;;;9.11;66.62;99059.44;5072926;28;45627;-64
2022/04/08 10:50:24;;;;;;;;;3.50;3.00;;;;;9.32;65.71;99061.91;5060435;28;45793;-64
2022/04/08 10:52:50;;;;;;;;;2.25;1.25;;;;;9.08;66.54;99019.69;5059865;28;45828;-64
2022/04/08 10:55:15;;;;;;;;;3.00;3.00;;;;;9.33;66.41;99056.50;5059907;28;48047;-64
2022/04/08 10:57:43;;;;;;;;;4.00;4.00;;;;;9.40;66.41;99063.19;5046550;28;45669;-64
2022/04/08 11:00:10;;;;;;;;;3.00;3.00;;;;;9.49;66.35;99059.19;5053592;28;45574;-64
2022/04/08 11:02:56;;;;;;;;;4.25;4.25;;;;;9.49;65.84;99055.66;5084397;27;45544;-66
2022/04/08 11:05:24;;;;;;;;;4.25;3.25;;;;;9.34;66.68;99057.34;5048444;28;46731;-66
2022/04/08 11:07:53;;;;;;;;;4.75;4.00;;;;;9.25;66.41;99045.41;5055662;28;46356;-65
2022/04/08 11:10:23;;;;;;;;;2.75;2.75;;;;;9.25;65.83;99024.09;5055575;28;45894;-65
2022/04/08 11:12:51;;;;;;;;;4.25;3.25;;;;;9.17;66.50;99061.78;5048543;28;45566;-66
2022/04/08 11:18:13;;;;;;;;;3.50;3.00;;;;;9.09;66.78;99032.06;5057171;28;45894;-65
2022/04/08 11:20:48;;;;;;;;;;;;;;;;;;;;;
2022/04/08 11:23:26;;;;;;;;;2.00;1.00;;;;;9.50;66.41;99057.38;5049576;28;73156;-65
2022/04/08 11:25:52;;;;;;;;;4.50;4.00;;;;;9.38;66.64;99066.91;5055306;28;45714;-65
2022/04/08 11:28:23;;;;;;;;;3.25;3.25;;;;;9.44;66.40;99078.09;5056825;28;45820;-65
2022/04/08 11:30:58;;;;;;;;;4.00;3.00;;;;;9.25;66.87;99064.91;5055659;28;45635;-64
2022/04/08 11:33:25;;;;;;;;;5.25;4.00;;;;;9.35;67.25;99056.41;5055160;28;45466;-63
2022/04/08 11:35:57;;;;;;;;;4.00;4.00;;;;;9.42;66.79;99048.00;5070624;28;46572;-64
2022/04/08 11:38:27;;;;;;;;;7.00;5.25;;;;;9.41;67.03;99054.28;5048497;28;45532;-64